createdAt,value
2019-01-23T00:00:47.193Z,-5.16
2019-01-23T00:01:47.189Z,-5.16
2019-01-23T00:02:47.195Z,-5.21
2019-01-23T00:03:47.200Z,-5.21
2019-01-23T00:04:47.214Z,-5.28
2019-01-23T00:05:47.294Z,-5.32
2019-01-23T00:06:47.299Z,-5.27
2019-01-23T00:07:47.291Z,-5.20
2019-01-23T00:08:47.289Z,-5.30
2019-01-23T00:09:47.294Z,-5.21
2019-01-23T00:10:47.304Z,-5.28
2019-01-23T00:11:47.312Z,-5.32
2019-01-23T00:12:47.298Z,-5.37
2019-01-23T00:13:47.290Z,-5.41
2019-01-23T00:14:47.350Z,-5.43
2019-01-23T00:15:47.357Z,-5.37
2019-01-23T00:16:47.348Z,-5.34
2019-01-23T00:17:47.354Z,-5.32
2019-01-23T00:18:47.374Z,-5.35
2019-01-23T00:19:47.377Z,-5.38
2019-01-23T00:20:47.353Z,-5.37
2019-01-23T00:21:47.349Z,-5.39
2019-01-23T00:22:47.359Z,-5.38
2019-01-23T00:23:47.345Z,-5.39
2019-01-23T00:24:47.337Z,-5.35
2019-01-23T00:25:47.433Z,-5.43
2019-01-23T00:26:47.345Z,-5.38
2019-01-23T00:27:47.357Z,-5.41
2019-01-23T00:28:47.343Z,-5.35
2019-01-23T00:29:47.348Z,-5.41
2019-01-23T00:30:47.352Z,-5.43
2019-01-23T00:31:47.358Z,-5.45
2019-01-23T00:32:47.367Z,-5.39
2019-01-23T00:33:47.369Z,-5.43
2019-01-23T00:34:47.376Z,-5.39
2019-01-23T00:35:47.384Z,-5.38
2019-01-23T00:36:47.389Z,-5.41
2019-01-23T00:37:47.392Z,-5.43
2019-01-23T00:38:47.398Z,-5.45
2019-01-23T00:39:47.404Z,-5.39
2019-01-23T00:40:47.413Z,-5.38
2019-01-23T00:41:47.417Z,-5.39
2019-01-23T00:42:47.423Z,-5.48
2019-01-23T00:43:47.425Z,-5.49
2019-01-23T00:44:47.432Z,-5.45
2019-01-23T00:45:47.437Z,-5.39
2019-01-23T00:46:47.441Z,-5.49
2019-01-23T00:47:47.447Z,-5.43
2019-01-23T00:48:47.455Z,-5.38
2019-01-23T00:49:47.458Z,-5.43
2019-01-23T00:50:47.470Z,-5.35
2019-01-23T00:51:47.470Z,-5.38
2019-01-23T00:52:47.475Z,-5.41
2019-01-23T00:53:47.479Z,-5.38
2019-01-23T00:54:47.485Z,-5.41
2019-01-23T00:55:47.489Z,-5.45
2019-01-23T00:56:47.497Z,-5.48
2019-01-23T00:57:47.504Z,-5.39
2019-01-23T00:58:49.309Z,-5.46
2019-01-23T00:59:47.515Z,-5.35
2019-01-23T01:00:47.520Z,-5.45
2019-01-23T01:01:47.524Z,-5.45
2019-01-23T01:02:47.529Z,-5.52
2019-01-23T01:03:47.535Z,-5.41
2019-01-23T01:04:47.539Z,-5.48
2019-01-23T01:05:47.547Z,-5.46
2019-01-23T01:06:47.553Z,-5.48
2019-01-23T01:07:47.559Z,-5.50
2019-01-23T01:08:47.564Z,-5.45
2019-01-23T01:09:47.568Z,-5.46
2019-01-23T01:10:47.574Z,-5.39
2019-01-23T01:11:47.580Z,-5.39
2019-01-23T01:12:47.586Z,-5.39
2019-01-23T01:13:47.589Z,-5.50
2019-01-23T01:14:47.597Z,-5.49
2019-01-23T01:15:47.600Z,-5.45
2019-01-23T01:16:47.608Z,-5.49
2019-01-23T01:17:47.611Z,-5.48
2019-01-23T01:18:47.616Z,-5.46
2019-01-23T01:19:47.622Z,-5.45
2019-01-23T01:20:47.633Z,-5.50
2019-01-23T01:21:47.634Z,-5.46
2019-01-23T01:22:47.639Z,-5.48
2019-01-23T01:23:47.645Z,-5.48
2019-01-23T01:24:47.651Z,-5.48
2019-01-23T01:25:47.657Z,-5.49
2019-01-23T01:26:47.660Z,-5.45
2019-01-23T01:27:47.692Z,-5.43
2019-01-23T01:28:47.671Z,-5.48
2019-01-23T01:29:47.676Z,-5.53
2019-01-23T01:30:47.682Z,-5.48
2019-01-23T01:31:47.688Z,-5.49
2019-01-23T01:32:47.695Z,-5.52
2019-01-23T01:33:47.699Z,-5.49
2019-01-23T01:34:47.707Z,-5.48
2019-01-23T01:35:47.713Z,-5.58
2019-01-23T01:36:47.716Z,-5.53
2019-01-23T01:37:47.744Z,-5.55
2019-01-23T01:38:47.725Z,-5.49
2019-01-23T01:39:47.729Z,-5.58
2019-01-23T01:40:47.736Z,-5.53
2019-01-23T01:41:47.741Z,-5.52
2019-01-23T01:42:47.746Z,-5.56
2019-01-23T01:43:47.754Z,-5.59
2019-01-23T01:44:47.761Z,-5.52
2019-01-23T01:45:47.764Z,-5.59
2019-01-23T01:46:47.769Z,-5.48
2019-01-23T01:47:47.774Z,-5.55
2019-01-23T01:48:47.781Z,-5.55
2019-01-23T01:49:47.784Z,-5.46
2019-01-23T01:50:47.789Z,-5.59
2019-01-23T01:51:47.799Z,-5.58
2019-01-23T01:52:47.802Z,-5.53
2019-01-23T01:53:47.807Z,-5.50
2019-01-23T01:54:47.810Z,-5.48
2019-01-23T01:55:47.816Z,-5.49
2019-01-23T01:56:47.822Z,-5.49
2019-01-23T01:57:47.829Z,-5.50
2019-01-23T01:58:47.836Z,-5.45
2019-01-23T01:59:47.842Z,-5.48
2019-01-23T02:00:47.844Z,-5.41
2019-01-23T02:01:47.848Z,-5.49
2019-01-23T02:02:47.854Z,-5.48
2019-01-23T02:03:47.861Z,-5.48
2019-01-23T02:04:47.865Z,-5.49
2019-01-23T02:05:47.872Z,-5.46
2019-01-23T02:06:47.876Z,-5.45
2019-01-23T02:07:47.883Z,-5.46
2019-01-23T02:08:47.886Z,-5.45
2019-01-23T02:09:47.895Z,-5.43
2019-01-23T02:10:47.898Z,-5.45
2019-01-23T02:11:47.904Z,-5.48
2019-01-23T02:12:47.911Z,-5.46
2019-01-23T02:13:47.915Z,-5.45
2019-01-23T02:14:47.919Z,-5.43
2019-01-23T02:15:47.928Z,-5.39
2019-01-23T02:16:47.932Z,-5.41
2019-01-23T02:17:47.936Z,-5.39
2019-01-23T02:18:47.944Z,-5.39
2019-01-23T02:19:47.956Z,-5.43
2019-01-23T02:20:47.954Z,-5.39
2019-01-23T02:21:47.960Z,-5.37
2019-01-23T02:22:47.964Z,-5.38
2019-01-23T02:23:47.970Z,-5.39
2019-01-23T02:24:47.977Z,-5.35
2019-01-23T02:25:47.981Z,-5.45
2019-01-23T02:26:47.985Z,-5.30
2019-01-23T02:27:47.993Z,-5.39
2019-01-23T02:28:47.999Z,-5.38
2019-01-23T02:29:48.002Z,-5.28
2019-01-23T02:30:48.008Z,-5.32
2019-01-23T02:31:48.023Z,-5.34
2019-01-23T02:32:48.022Z,-5.30
2019-01-23T02:33:48.024Z,-5.34
2019-01-23T02:34:48.035Z,-5.31
2019-01-23T02:35:48.040Z,-5.31
2019-01-23T02:36:48.045Z,-5.27
2019-01-23T02:37:48.052Z,-5.34
2019-01-23T02:38:48.056Z,-5.30
2019-01-23T02:39:48.061Z,-5.28
2019-01-23T02:40:48.067Z,-5.25
2019-01-23T02:41:48.072Z,-5.21
2019-01-23T02:42:48.074Z,-5.19
2019-01-23T02:43:48.082Z,-5.13
2019-01-23T02:44:48.092Z,-5.21
2019-01-23T02:45:48.094Z,-5.17
2019-01-23T02:46:48.099Z,-5.30
2019-01-23T02:47:48.111Z,-5.28
2019-01-23T02:48:48.111Z,-5.32
2019-01-23T02:49:48.122Z,-5.30
2019-01-23T02:50:48.123Z,-5.30
2019-01-23T02:51:48.130Z,-5.30
2019-01-23T02:52:48.137Z,-5.20
2019-01-23T02:53:48.137Z,-5.21
2019-01-23T02:54:48.148Z,-5.19
2019-01-23T02:55:48.151Z,-5.13
2019-01-23T02:56:48.158Z,-5.21
2019-01-23T02:57:48.164Z,-5.19
2019-01-23T02:58:48.170Z,-5.13
2019-01-23T02:59:48.176Z,-5.28
2019-01-23T03:00:48.180Z,-5.32
2019-01-23T03:01:48.184Z,-5.30
2019-01-23T03:02:48.191Z,-5.23
2019-01-23T03:03:48.197Z,-5.32
2019-01-23T03:04:48.202Z,-5.28
2019-01-23T03:05:48.206Z,-5.31
2019-01-23T03:06:48.213Z,-5.31
2019-01-23T03:07:48.219Z,-5.34
2019-01-23T03:08:48.227Z,-5.32
2019-01-23T03:09:48.229Z,-5.28
2019-01-23T03:10:48.236Z,-5.25
2019-01-23T03:11:48.244Z,-5.32
2019-01-23T03:12:48.248Z,-5.28
2019-01-23T03:13:48.254Z,-5.28
2019-01-23T03:14:48.258Z,-5.23
2019-01-23T03:15:48.266Z,-5.34
2019-01-23T03:16:48.274Z,-5.28
2019-01-23T03:17:48.278Z,-5.34
2019-01-23T03:18:48.285Z,-5.31
2019-01-23T03:19:48.289Z,-5.21
2019-01-23T03:20:48.291Z,-5.31
2019-01-23T03:21:48.298Z,-5.32
2019-01-23T03:22:48.303Z,-5.30
2019-01-23T03:23:48.310Z,-5.32
2019-01-23T03:24:48.315Z,-5.25
2019-01-23T03:25:48.320Z,-5.31
2019-01-23T03:26:48.327Z,-5.28
2019-01-23T03:27:48.331Z,-5.31
2019-01-23T03:28:48.338Z,-5.31
2019-01-23T03:29:48.342Z,-5.30
2019-01-23T03:30:48.351Z,-5.31
2019-01-23T03:31:48.355Z,-5.20
2019-01-23T03:32:48.361Z,-5.16
2019-01-23T03:33:48.365Z,-5.30
2019-01-23T03:34:48.371Z,-5.19
2019-01-23T03:35:48.378Z,-5.19
2019-01-23T03:36:48.384Z,-5.16
2019-01-23T03:37:48.389Z,-5.23
2019-01-23T03:38:48.394Z,-5.21
2019-01-23T03:39:48.399Z,-5.23
2019-01-23T03:40:48.407Z,-5.13
2019-01-23T03:41:48.412Z,-5.17
2019-01-23T03:42:48.416Z,-5.12
2019-01-23T03:43:48.422Z,-5.21
2019-01-23T03:44:48.429Z,-5.10
2019-01-23T03:45:48.432Z,-5.17
2019-01-23T03:46:48.441Z,-5.10
2019-01-23T03:47:48.448Z,-5.09
2019-01-23T03:48:48.452Z,-5.09
2019-01-23T03:49:48.464Z,-5.02
2019-01-23T03:50:48.460Z,-5.10
2019-01-23T03:51:48.471Z,-5.08
2019-01-23T03:52:48.477Z,-5.06
2019-01-23T03:53:48.481Z,-5.09
2019-01-23T03:54:48.483Z,-5.19
2019-01-23T03:55:48.491Z,-5.00
2019-01-23T03:56:48.496Z,-5.09
2019-01-23T03:57:48.502Z,-5.08
2019-01-23T03:58:48.516Z,-5.06
2019-01-23T03:59:48.514Z,-4.94
2019-01-23T04:00:48.520Z,-5.01
2019-01-23T04:01:48.525Z,-4.98
2019-01-23T04:02:48.535Z,-4.97
2019-01-23T04:03:48.535Z,-5.09
2019-01-23T04:04:48.542Z,-4.97
2019-01-23T04:05:48.553Z,-5.10
2019-01-23T04:06:48.554Z,-5.01
2019-01-23T04:07:48.560Z,-5.01
2019-01-23T04:08:48.568Z,-5.09
2019-01-23T04:09:48.570Z,-5.06
2019-01-23T04:10:48.580Z,-5.02
2019-01-23T04:11:50.334Z,-5.06
2019-01-23T04:12:48.588Z,-5.09
2019-01-23T04:13:48.594Z,-5.08
2019-01-23T04:14:48.601Z,-5.13
2019-01-23T04:15:48.606Z,-5.16
2019-01-23T04:16:48.613Z,-5.09
2019-01-23T04:17:48.617Z,-5.08
2019-01-23T04:18:48.625Z,-5.06
2019-01-23T04:19:48.630Z,-5.05
2019-01-23T04:20:48.637Z,-5.01
2019-01-23T04:21:48.639Z,-5.09
2019-01-23T04:22:48.646Z,-5.06
2019-01-23T04:23:48.654Z,-5.01
2019-01-23T04:24:48.658Z,-5.00
2019-01-23T04:25:48.663Z,-4.92
2019-01-23T04:26:48.669Z,-5.01
2019-01-23T04:27:48.676Z,-4.91
2019-01-23T04:28:48.682Z,-5.01
2019-01-23T04:29:48.688Z,-5.00
2019-01-23T04:30:48.695Z,-5.02
2019-01-23T04:31:48.699Z,-4.98
2019-01-23T04:32:48.711Z,-4.98
2019-01-23T04:33:48.714Z,-4.95
2019-01-23T04:34:48.719Z,-4.95
2019-01-23T04:35:48.738Z,-4.97
2019-01-23T04:36:48.730Z,-4.90
2019-01-23T04:37:48.736Z,-4.92
2019-01-23T04:38:48.742Z,-4.87
2019-01-23T04:39:48.746Z,-4.91
2019-01-23T04:40:48.756Z,-4.81
2019-01-23T04:41:48.765Z,-4.87
2019-01-23T04:42:48.769Z,-4.90
2019-01-23T04:43:48.773Z,-4.91
2019-01-23T04:44:48.776Z,-4.92
2019-01-23T04:45:48.784Z,-4.91
2019-01-23T04:46:48.793Z,-4.87
2019-01-23T04:47:48.799Z,-4.97
2019-01-23T04:48:48.800Z,-4.95
2019-01-23T04:49:48.805Z,-4.90
2019-01-23T04:50:48.813Z,-4.90
2019-01-23T04:51:48.820Z,-4.80
2019-01-23T04:52:48.834Z,-4.91
2019-01-23T04:53:48.833Z,-4.94
2019-01-23T04:54:48.839Z,-4.98
2019-01-23T04:55:48.842Z,-5.00
2019-01-23T04:56:48.849Z,-4.90
2019-01-23T04:57:48.853Z,-4.95
2019-01-23T04:58:48.874Z,-4.95
2019-01-23T04:59:48.952Z,-4.91
2019-01-23T05:00:48.945Z,-4.98
2019-01-23T05:01:48.939Z,-4.97
2019-01-23T05:02:50.408Z,-4.95
2019-01-23T05:03:48.946Z,-4.94
2019-01-23T05:04:48.942Z,-5.09
2019-01-23T05:05:48.955Z,-5.05
2019-01-23T05:06:48.966Z,-5.09
2019-01-23T05:07:48.944Z,-5.17
2019-01-23T05:08:49.005Z,-5.17
2019-01-23T05:09:49.012Z,-5.13
2019-01-23T05:10:49.005Z,-5.13
2019-01-23T05:11:49.025Z,-5.21
2019-01-23T05:12:49.032Z,-5.21
2019-01-23T05:13:49.001Z,-5.01
2019-01-23T05:14:49.030Z,-5.27
2019-01-23T05:15:49.006Z,-5.19
2019-01-23T05:16:49.010Z,-5.12
2019-01-23T05:17:49.016Z,-5.32
2019-01-23T05:18:49.011Z,-5.34
2019-01-23T05:19:49.004Z,-5.28
2019-01-23T05:20:48.987Z,-5.31
2019-01-23T05:21:49.012Z,-5.19
2019-01-23T05:22:49.010Z,-5.32
2019-01-23T05:23:49.007Z,-5.31
2019-01-23T05:24:49.012Z,-5.31
2019-01-23T05:25:49.014Z,-5.28
2019-01-23T05:26:49.022Z,-5.30
2019-01-23T05:27:49.028Z,-5.28
2019-01-23T05:28:49.035Z,-5.30
2019-01-23T05:29:54.805Z,-5.25
2019-01-23T05:30:49.045Z,-5.28
2019-01-23T05:31:49.052Z,-5.31
2019-01-23T05:32:49.057Z,-5.28
2019-01-23T05:33:49.061Z,-5.27
2019-01-23T05:34:49.069Z,-5.32
2019-01-23T05:35:49.074Z,-5.30
2019-01-23T05:36:49.081Z,-5.32
2019-01-23T05:37:49.084Z,-5.28
2019-01-23T05:38:49.092Z,-5.34
2019-01-23T05:39:49.098Z,-5.35
2019-01-23T05:40:49.105Z,-5.41
2019-01-23T05:41:49.109Z,-5.41
2019-01-23T05:42:49.114Z,-5.38
2019-01-23T05:43:49.119Z,-5.41
2019-01-23T05:44:49.125Z,-5.41
2019-01-23T05:45:49.130Z,-5.23
2019-01-23T05:46:49.137Z,-5.38
2019-01-23T05:47:49.142Z,-5.25
2019-01-23T05:48:49.149Z,-5.43
2019-01-23T05:49:49.155Z,-5.41
2019-01-23T05:50:49.163Z,-5.35
2019-01-23T05:51:49.168Z,-5.46
2019-01-23T05:52:49.172Z,-5.39
2019-01-23T05:53:49.176Z,-5.38
2019-01-23T05:54:49.180Z,-5.35
2019-01-23T05:55:49.187Z,-5.35
2019-01-23T05:56:49.193Z,-5.34
2019-01-23T05:57:49.198Z,-5.39
2019-01-23T05:58:49.204Z,-5.35
2019-01-23T05:59:49.211Z,-5.35
2019-01-23T06:00:49.216Z,-5.41
2019-01-23T06:01:49.220Z,-5.39
2019-01-23T06:02:49.226Z,-5.34
2019-01-23T06:03:49.232Z,-5.43
2019-01-23T06:04:49.238Z,-5.48
2019-01-23T06:05:49.243Z,-5.45
2019-01-23T06:06:49.249Z,-5.49
2019-01-23T06:07:49.257Z,-5.45
2019-01-23T06:08:49.259Z,-5.48
2019-01-23T06:09:49.265Z,-5.46
2019-01-23T06:10:49.279Z,-5.45
2019-01-23T06:11:49.277Z,-5.50
2019-01-23T06:12:49.279Z,-5.49
2019-01-23T06:13:49.291Z,-5.48
2019-01-23T06:14:49.293Z,-5.50
2019-01-23T06:15:49.299Z,-5.52
2019-01-23T06:16:49.306Z,-5.55
2019-01-23T06:17:49.308Z,-5.55
2019-01-23T06:18:49.314Z,-5.55
2019-01-23T06:19:49.321Z,-5.64
2019-01-23T06:20:49.336Z,-5.55
2019-01-23T06:21:49.328Z,-5.53
2019-01-23T06:22:49.337Z,-5.58
2019-01-23T06:23:49.341Z,-5.56
2019-01-23T06:24:49.345Z,-5.64
2019-01-23T06:25:49.354Z,-5.63
2019-01-23T06:26:49.358Z,-5.64
2019-01-23T06:27:49.364Z,-5.64
2019-01-23T06:28:49.372Z,-5.63
2019-01-23T06:29:49.376Z,-5.66
2019-01-23T06:30:49.384Z,-5.74
2019-01-23T06:31:49.392Z,-5.74
2019-01-23T06:32:49.397Z,-5.64
2019-01-23T06:33:49.400Z,-5.71
2019-01-23T06:34:49.403Z,-5.76
2019-01-23T06:35:49.409Z,-5.77
2019-01-23T06:36:49.413Z,-5.78
2019-01-23T06:37:49.424Z,-5.81
2019-01-23T06:38:49.425Z,-5.77
2019-01-23T06:39:49.433Z,-5.78
2019-01-23T06:40:49.435Z,-5.74
2019-01-23T06:41:49.439Z,-5.76
2019-01-23T06:42:49.447Z,-5.81
2019-01-23T06:43:49.451Z,-5.77
2019-01-23T06:44:49.456Z,-5.76
2019-01-23T06:45:49.459Z,-5.76
2019-01-23T06:46:49.467Z,-5.76
2019-01-23T06:47:49.475Z,-5.84
2019-01-23T06:48:49.476Z,-5.95
2019-01-23T06:49:49.483Z,-5.89
2019-01-23T06:50:49.490Z,-5.87
2019-01-23T06:51:49.494Z,-5.91
2019-01-23T06:52:49.502Z,-5.94
2019-01-23T06:53:49.505Z,-5.94
2019-01-23T06:54:49.510Z,-5.94
2019-01-23T06:55:49.515Z,-5.92
2019-01-23T06:56:49.521Z,-5.95
2019-01-23T06:57:49.523Z,-6.00
2019-01-23T06:58:49.530Z,-5.92
2019-01-23T06:59:49.541Z,-5.92
2019-01-23T07:00:49.542Z,-5.95
2019-01-23T07:01:49.544Z,-5.88
2019-01-23T07:02:49.554Z,-5.97
2019-01-23T07:03:49.555Z,-5.87
2019-01-23T07:04:49.562Z,-5.91
2019-01-23T07:05:49.565Z,-5.94
2019-01-23T07:06:49.572Z,-5.91
2019-01-23T07:07:49.577Z,-5.94
2019-01-23T07:08:49.582Z,-5.92
2019-01-23T07:09:49.588Z,-5.92
2019-01-23T07:10:49.594Z,-5.91
2019-01-23T07:11:49.598Z,-5.89
2019-01-23T07:12:49.608Z,-5.88
2019-01-23T07:13:49.606Z,-5.92
2019-01-23T07:14:49.612Z,-5.92
2019-01-23T07:15:49.620Z,-5.87
2019-01-23T07:16:49.624Z,-5.82
2019-01-23T07:17:49.631Z,-5.77
2019-01-23T07:18:49.634Z,-5.78
2019-01-23T07:19:49.640Z,-5.74
2019-01-23T07:20:49.645Z,-5.74
2019-01-23T07:21:49.651Z,-5.70
2019-01-23T07:22:49.655Z,-5.73
2019-01-23T07:23:49.663Z,-5.74
2019-01-23T07:24:49.669Z,-5.71
2019-01-23T07:25:49.670Z,-5.67
2019-01-23T07:26:49.679Z,-5.64
2019-01-23T07:27:49.682Z,-5.66
2019-01-23T07:28:49.697Z,-5.63
2019-01-23T07:29:49.695Z,-5.70
2019-01-23T07:30:49.701Z,-5.63
2019-01-23T07:31:49.704Z,-5.68
2019-01-23T07:32:49.712Z,-5.67
2019-01-23T07:33:49.716Z,-5.63
2019-01-23T07:34:49.722Z,-5.58
2019-01-23T07:35:49.726Z,-5.56
2019-01-23T07:36:49.742Z,-5.53
2019-01-23T07:37:49.742Z,-5.59
2019-01-23T07:38:49.744Z,-5.56
2019-01-23T07:39:49.750Z,-5.56
2019-01-23T07:40:49.756Z,-5.59
2019-01-23T07:41:49.760Z,-5.49
2019-01-23T07:42:49.772Z,-5.49
2019-01-23T07:43:49.773Z,-5.55
2019-01-23T07:44:49.779Z,-5.55
2019-01-23T07:45:49.780Z,-5.49
2019-01-23T07:46:49.790Z,-5.41
2019-01-23T07:47:49.795Z,-5.48
2019-01-23T07:48:49.804Z,-5.41
2019-01-23T07:49:49.805Z,-5.49
2019-01-23T07:50:49.813Z,-5.46
2019-01-23T07:51:49.818Z,-5.46
2019-01-23T07:52:49.826Z,-5.43
2019-01-23T07:53:51.221Z,-5.35
2019-01-23T07:54:49.833Z,-5.34
2019-01-23T07:55:49.840Z,-5.34
2019-01-23T07:56:49.846Z,-5.31
2019-01-23T07:57:49.854Z,-5.30
2019-01-23T07:58:49.856Z,-5.17
2019-01-23T07:59:49.865Z,-5.21
2019-01-23T08:00:49.870Z,-5.12
2019-01-23T08:01:49.880Z,-5.17
2019-01-23T08:02:49.882Z,-5.13
2019-01-23T08:03:49.888Z,-5.13
2019-01-23T08:04:49.894Z,-5.10
2019-01-23T08:05:49.919Z,-5.13
2019-01-23T08:06:49.907Z,-5.09
2019-01-23T08:07:49.923Z,-5.09
2019-01-23T08:08:49.919Z,-5.13
2019-01-23T08:09:49.925Z,-5.10
2019-01-23T08:10:49.931Z,-5.10
2019-01-23T08:11:49.936Z,-5.08
2019-01-23T08:12:49.944Z,-5.16
2019-01-23T08:13:50.015Z,-5.23
2019-01-23T08:14:49.958Z,-5.19
2019-01-23T08:15:49.961Z,-5.23
2019-01-23T08:16:49.966Z,-5.09
2019-01-23T08:17:49.972Z,-5.16
2019-01-23T08:18:49.979Z,-5.09
2019-01-23T08:19:49.986Z,-5.13
2019-01-23T08:20:49.992Z,-5.17
2019-01-23T08:21:49.997Z,-5.09
2019-01-23T08:22:50.005Z,-5.08
2019-01-23T08:23:50.010Z,-5.08
2019-01-23T08:24:50.014Z,-5.09
2019-01-23T08:25:50.021Z,-5.06
2019-01-23T08:26:50.026Z,-5.02
2019-01-23T08:27:50.032Z,-5.10
2019-01-23T08:28:50.040Z,-5.13
2019-01-23T08:29:50.048Z,-5.09
2019-01-23T08:30:50.051Z,-5.13
2019-01-23T08:31:50.057Z,-5.19
2019-01-23T08:32:50.066Z,-5.12
2019-01-23T08:33:50.073Z,-5.06
2019-01-23T08:34:50.074Z,-5.23
2019-01-23T08:35:50.081Z,-5.20
2019-01-23T08:36:50.094Z,-5.19
2019-01-23T08:37:50.093Z,-5.21
2019-01-23T08:38:50.099Z,-5.10
2019-01-23T08:39:50.107Z,-5.10
2019-01-23T08:40:50.112Z,-5.16
2019-01-23T08:41:50.119Z,-5.13
2019-01-23T08:42:50.122Z,-5.09
2019-01-23T08:43:50.132Z,-5.06
2019-01-23T08:44:50.136Z,-5.05
2019-01-23T08:45:50.141Z,-5.05
2019-01-23T08:46:50.146Z,-5.00
2019-01-23T08:47:50.154Z,-4.98
2019-01-23T08:48:50.162Z,-4.98
2019-01-23T08:49:50.165Z,-4.98
2019-01-23T08:50:50.170Z,-4.94
2019-01-23T08:51:50.178Z,-4.95
2019-01-23T08:52:50.189Z,-4.91
2019-01-23T08:53:50.193Z,-4.83
2019-01-23T08:54:50.197Z,-4.76
2019-01-23T08:55:53.745Z,-4.88
2019-01-23T08:56:50.210Z,-4.83
2019-01-23T08:57:50.214Z,-4.76
2019-01-23T08:58:50.220Z,-4.77
2019-01-23T08:59:50.229Z,-4.76
2019-01-23T09:00:50.236Z,-4.70
2019-01-23T09:01:50.243Z,-4.62
2019-01-23T09:02:50.249Z,-4.62
2019-01-23T09:03:50.255Z,-4.67
2019-01-23T09:04:50.262Z,-4.61
2019-01-23T09:05:50.268Z,-4.56
2019-01-23T09:06:50.275Z,-4.53
2019-01-23T09:07:50.285Z,-4.49
2019-01-23T09:08:50.287Z,-4.38
2019-01-23T09:09:50.295Z,-4.40
2019-01-23T09:10:50.301Z,-4.34
2019-01-23T09:11:50.306Z,-4.33
2019-01-23T09:12:50.313Z,-4.24
2019-01-23T09:13:50.320Z,-4.23
2019-01-23T09:14:50.329Z,-4.16
2019-01-23T09:15:50.335Z,-4.12
2019-01-23T09:16:50.342Z,-4.09
2019-01-23T09:17:50.351Z,-4.13
2019-01-23T09:18:50.354Z,-4.09
2019-01-23T09:19:50.366Z,-4.06
2019-01-23T09:20:50.376Z,-4.04
2019-01-23T09:21:50.382Z,-3.96
2019-01-23T09:22:50.385Z,-3.91
2019-01-23T09:23:50.394Z,-3.91
2019-01-23T09:24:50.401Z,-3.87
2019-01-23T09:25:51.623Z,-3.85
2019-01-23T09:26:50.416Z,-3.84
2019-01-23T09:27:50.423Z,-3.80
2019-01-23T09:28:50.429Z,-3.75
2019-01-23T09:29:50.437Z,-3.71
2019-01-23T09:30:52.735Z,-3.66
2019-01-23T09:31:50.452Z,-3.65
2019-01-23T09:32:50.460Z,-3.61
2019-01-23T09:33:50.467Z,-3.61
2019-01-23T09:34:50.474Z,-3.56
2019-01-23T09:35:50.484Z,-3.47
2019-01-23T09:36:50.491Z,-3.47
2019-01-23T09:37:50.495Z,-3.41
2019-01-23T09:38:50.507Z,-3.36
2019-01-23T09:39:50.524Z,-3.27
2019-01-23T09:40:50.545Z,-3.30
2019-01-23T09:41:50.600Z,-3.36
2019-01-23T09:42:50.602Z,-3.30
2019-01-23T09:43:50.599Z,-3.37
2019-01-23T09:44:50.602Z,-3.27
2019-01-23T09:45:50.602Z,-3.19
2019-01-23T09:46:50.629Z,-3.22
2019-01-23T09:47:50.603Z,-3.23
2019-01-23T09:48:51.506Z,-3.17
2019-01-23T09:49:50.667Z,-3.15
2019-01-23T09:50:50.657Z,-3.15
2019-01-23T09:51:50.655Z,-3.11
2019-01-23T09:52:50.649Z,-3.11
2019-01-23T09:53:50.656Z,-3.09
2019-01-23T09:54:50.665Z,-3.14
2019-01-23T09:55:50.659Z,-3.12
2019-01-23T09:56:50.679Z,-3.26
2019-01-23T09:57:50.701Z,-3.15
2019-01-23T09:58:50.662Z,-3.23
2019-01-23T09:59:50.673Z,-3.27
2019-01-23T10:00:50.681Z,-3.15
2019-01-23T10:01:50.685Z,-3.32
2019-01-23T10:02:50.696Z,-3.36
2019-01-23T10:03:50.703Z,-3.20
2019-01-23T10:04:50.711Z,-3.23
2019-01-23T10:05:50.719Z,-3.22
2019-01-23T10:06:50.727Z,-3.17
2019-01-23T10:07:50.734Z,-3.12
2019-01-23T10:08:50.742Z,-3.02
2019-01-23T10:09:50.751Z,-3.04
2019-01-23T10:10:50.760Z,-2.96
2019-01-23T10:11:50.766Z,-2.96
2019-01-23T10:12:50.778Z,-2.81
2019-01-23T10:13:50.783Z,-2.81
2019-01-23T10:14:50.793Z,-2.84
2019-01-23T10:15:50.800Z,-2.83
2019-01-23T10:16:50.814Z,-2.80
2019-01-23T10:17:50.819Z,-2.75
2019-01-23T10:18:56.055Z,-2.81
2019-01-23T10:19:50.841Z,-2.86
2019-01-23T10:20:50.843Z,-2.83
2019-01-23T10:21:50.849Z,-2.80
2019-01-23T10:22:50.859Z,-2.89
2019-01-23T10:23:50.866Z,-2.91
2019-01-23T10:24:50.875Z,-2.86
2019-01-23T10:25:50.881Z,-2.87
2019-01-23T10:26:50.892Z,-2.91
2019-01-23T10:27:50.900Z,-2.98
2019-01-23T10:28:50.906Z,-2.93
2019-01-23T10:29:50.914Z,-2.96
2019-01-23T10:30:50.923Z,-2.98
2019-01-23T10:31:50.929Z,-2.98
2019-01-23T10:32:50.941Z,-2.94
2019-01-23T10:33:50.948Z,-2.90
2019-01-23T10:34:50.958Z,-2.87
2019-01-23T10:35:50.965Z,-2.87
2019-01-23T10:36:50.975Z,-2.81
2019-01-23T10:37:50.981Z,-2.81
2019-01-23T10:38:50.990Z,-2.80
2019-01-23T10:39:52.280Z,-2.80
2019-01-23T10:40:51.005Z,-2.76
2019-01-23T10:41:51.013Z,-2.80
2019-01-23T10:42:51.022Z,-2.84
2019-01-23T10:43:51.031Z,-2.76
2019-01-23T10:44:51.037Z,-2.73
2019-01-23T10:45:51.047Z,-2.80
2019-01-23T10:46:51.055Z,-2.83
2019-01-23T10:47:55.995Z,-2.69
2019-01-23T10:48:51.071Z,-2.69
2019-01-23T10:49:51.080Z,-2.66
2019-01-23T10:50:51.089Z,-2.75
2019-01-23T10:51:51.098Z,-2.65
2019-01-23T10:52:51.106Z,-2.61
2019-01-23T10:53:51.113Z,-2.51
2019-01-23T10:54:51.121Z,-2.57
2019-01-23T10:55:51.131Z,-2.47
2019-01-23T10:56:51.142Z,-2.42
2019-01-23T10:57:51.149Z,-2.48
2019-01-23T10:58:51.155Z,-2.42
2019-01-23T10:59:51.166Z,-2.44
2019-01-23T11:00:51.174Z,-2.37
2019-01-23T11:01:51.185Z,-2.28
2019-01-23T11:02:51.189Z,-2.37
2019-01-23T11:03:51.200Z,-2.23
2019-01-23T11:04:51.213Z,-2.29
2019-01-23T11:05:51.229Z,-2.32
2019-01-23T11:06:51.226Z,-2.32
2019-01-23T11:07:51.236Z,-2.25
2019-01-23T11:08:51.244Z,-2.28
2019-01-23T11:09:51.251Z,-2.26
2019-01-23T11:10:51.261Z,-2.26
2019-01-23T11:11:51.270Z,-2.23
2019-01-23T11:12:51.278Z,-2.20
2019-01-23T11:13:51.285Z,-2.15
2019-01-23T11:14:51.299Z,-2.15
2019-01-23T11:15:51.305Z,-2.11
2019-01-23T11:16:51.322Z,-2.17
2019-01-23T11:17:51.324Z,-2.17
2019-01-23T11:18:51.332Z,-2.11
2019-01-23T11:19:51.341Z,-2.22
2019-01-23T11:20:51.384Z,-2.15
2019-01-23T11:21:51.361Z,-2.17
2019-01-23T11:22:51.367Z,-2.22
2019-01-23T11:23:51.377Z,-2.25
2019-01-23T11:24:51.386Z,-2.32
2019-01-23T11:25:51.396Z,-2.26
2019-01-23T11:26:51.406Z,-2.33
2019-01-23T11:27:51.412Z,-2.51
2019-01-23T11:28:51.420Z,-2.48
2019-01-23T11:29:51.426Z,-2.51
2019-01-23T11:30:51.437Z,-2.47
2019-01-23T11:31:51.446Z,-2.58
2019-01-23T11:32:51.453Z,-2.58
2019-01-23T11:33:51.461Z,-2.70
2019-01-23T11:34:51.471Z,-2.75
2019-01-23T11:35:51.477Z,-2.72
2019-01-23T11:36:51.487Z,-2.69
2019-01-23T11:37:51.494Z,-2.76
2019-01-23T11:38:52.576Z,-2.66
2019-01-23T11:39:51.514Z,-2.63
2019-01-23T11:40:51.519Z,-2.70
2019-01-23T11:41:51.526Z,-2.70
2019-01-23T11:42:51.534Z,-2.78
2019-01-23T11:43:51.546Z,-2.76
2019-01-23T11:44:51.552Z,-2.76
2019-01-23T11:45:51.558Z,-2.80
2019-01-23T11:46:51.569Z,-2.80
2019-01-23T11:47:51.575Z,-2.76
2019-01-23T11:48:51.592Z,-2.76
2019-01-23T11:49:51.592Z,-2.81
2019-01-23T11:50:51.600Z,-2.80
2019-01-23T11:51:51.615Z,-2.70
2019-01-23T11:52:51.617Z,-2.66
2019-01-23T11:53:51.623Z,-2.69
2019-01-23T11:54:51.633Z,-2.69
2019-01-23T11:55:51.640Z,-2.66
2019-01-23T11:56:51.648Z,-2.63
2019-01-23T11:57:51.656Z,-2.66
2019-01-23T11:58:51.665Z,-2.55
2019-01-23T11:59:51.670Z,-2.65
2019-01-23T12:00:51.685Z,-2.55
2019-01-23T12:01:51.691Z,-2.45
2019-01-23T12:02:51.696Z,-2.52
2019-01-23T12:03:51.707Z,-2.45
2019-01-23T12:04:51.714Z,-2.50
2019-01-23T12:05:51.728Z,-2.48
2019-01-23T12:06:51.731Z,-2.50
2019-01-23T12:07:51.738Z,-2.52
2019-01-23T12:08:51.747Z,-2.54
2019-01-23T12:09:51.827Z,-2.50
2019-01-23T12:10:51.765Z,-2.39
2019-01-23T12:11:51.773Z,-2.39
2019-01-23T12:12:51.780Z,-2.39
2019-01-23T12:13:51.789Z,-2.39
2019-01-23T12:14:51.798Z,-2.37
2019-01-23T12:15:51.806Z,-2.37
2019-01-23T12:16:51.814Z,-2.42
2019-01-23T12:17:52.325Z,-2.26
2019-01-23T12:18:51.831Z,-2.26
2019-01-23T12:19:51.841Z,-2.28
2019-01-23T12:20:51.850Z,-2.23
2019-01-23T12:21:51.857Z,-2.23
2019-01-23T12:22:51.866Z,-2.32
2019-01-23T12:23:58.103Z,-2.20
2019-01-23T12:24:51.883Z,-2.25
2019-01-23T12:25:51.892Z,-2.17
2019-01-23T12:26:51.904Z,-2.17
2019-01-23T12:27:51.910Z,-2.22
2019-01-23T12:28:51.920Z,-2.20
2019-01-23T12:29:51.927Z,-2.22
2019-01-23T12:30:51.935Z,-2.20
2019-01-23T12:31:51.946Z,-2.22
2019-01-23T12:32:51.952Z,-2.23
2019-01-23T12:33:51.963Z,-2.11
2019-01-23T12:34:51.969Z,-2.17
2019-01-23T12:35:51.981Z,-2.25
2019-01-23T12:36:51.990Z,-2.25
2019-01-23T12:37:51.996Z,-2.26
2019-01-23T12:38:52.081Z,-2.11
2019-01-23T12:39:52.016Z,-2.20
2019-01-23T12:40:52.022Z,-2.26
2019-01-23T12:41:52.031Z,-2.28
2019-01-23T12:42:52.040Z,-2.18
2019-01-23T12:43:52.047Z,-2.25
2019-01-23T12:44:52.055Z,-2.28
2019-01-23T12:45:52.064Z,-2.33
2019-01-23T12:46:52.075Z,-2.39
2019-01-23T12:47:52.081Z,-2.33
2019-01-23T12:48:52.091Z,-2.39
2019-01-23T12:49:52.099Z,-2.36
2019-01-23T12:50:52.108Z,-2.52
2019-01-23T12:51:52.116Z,-2.47
2019-01-23T12:52:52.124Z,-2.61